Terminal Aerodrome Forecast
Issued by NWS

Home | Current Version | Previous Version | Text Only | Print | Product List | Glossary On
Versions: 1 2 3 4 5 6 7 8 9 10 11 12 13 14
000
FTUS41 KPBZ 280524
TAFHLG
TAF
KHLG 280524Z 2806/2906 17004KT P6SM SKC
     FM281800 13009G16KT P6SM SCT200
     FM282000 11007KT P6SM BKN040
     FM282200 10007KT P6SM VCSH BKN035=

USA.gov is the U.S. government's official web portal to all federal, state and local government web resources and services.